Valley Head, Alabama
Current Conditions -  °F | °C
As of 5:15 PM on Saturday 25 Oct 2014 (Local Time) from K4A9 Reporting Station
Scattered Clouds Scattered Clouds  
Wind Chill: 72°   Ceiling: Unl
Heat Index: 72°   Visibility: 10mi
Dew Point: 52°   Wind: 5mph
Humidity: 50%   Direction: 230°SW
Pressure: 30.02"   Gusts: NA
Location:  34.57°N, 85.61°W
Report Text: K4A9 252215Z AUTO 23004KT 10SM SCT047 22/11 A3002 RMK AO2
Loading
Personal Weather Stations






























Interactive Weather Map
Tropical Storm Tracking
New forecast layout! Learn more

10-Day Weather Forecast

Advertisements
Track Severe Weather on mobile